Time;durP1;ratioP1;P1;durP2;ratioP2;P2;SDS_P1;SDS_P2;PMS_P1;PMS_P2;Temp;Humidity;BMP_temperature;BMP_pressure;BME280_temperature;BME280_humidity;BME280_pressure;Samples;Min_cycle;Max_cycle;Signal;HPM_P1;HPM_P2
2023/05/30 00:00:33;;;;;;;9.20;6.00;;;;;;;22.63;47.21;100409.54;105523;1305;67931;-88
2023/05/30 00:02:59;;;;;;;9.60;6.20;;;;;;;22.62;47.22;100407.86;105133;1300;67910;-88
2023/05/30 00:05:24;;;;;;;9.20;5.60;;;;;;;22.62;47.15;100408.73;105004;1300;67984;-87
2023/05/30 00:07:50;;;;;;;5.80;5.20;;;;;;;22.62;47.23;100409.00;105064;1300;67978;-87
2023/05/30 00:10:15;;;;;;;8.00;5.50;;;;;;;22.62;47.24;100405.81;105173;1300;68064;-87
2023/05/30 00:12:41;;;;;;;8.20;5.60;;;;;;;22.62;47.22;100403.67;105032;1299;69782;-87
2023/05/30 00:15:07;;;;;;;7.50;5.50;;;;;;;22.61;47.19;100402.55;105269;1299;67929;-87
2023/05/30 00:20:13;;;;;;;8.50;5.70;;;;;;;22.60;47.32;100405.37;105258;1299;67720;-87
2023/05/30 00:22:41;;;;;;;7.90;5.60;;;;;;;22.60;47.19;100401.94;105239;1297;67748;-88
2023/05/30 00:25:09;;;;;;;7.90;5.40;;;;;;;22.60;47.29;100401.27;105135;1297;67894;-87
2023/05/30 00:27:35;;;;;;;7.40;5.10;;;;;;;22.60;47.20;100401.23;105260;1299;68005;-88
2023/05/30 00:30:01;;;;;;;7.30;5.40;;;;;;;22.60;47.21;100404.71;105213;1299;68557;-88
2023/05/30 00:32:27;;;;;;;8.10;5.40;;;;;;;22.59;47.23;100400.00;105163;1297;67919;-87
2023/05/30 00:34:52;;;;;;;7.80;5.10;;;;;;;22.59;47.19;100401.39;105171;1305;68911;-87
2023/05/30 00:37:18;;;;;;;7.60;6.10;;;;;;;22.60;47.30;100404.71;105246;1301;68042;-87
2023/05/30 00:39:44;;;;;;;7.10;5.20;;;;;;;22.59;47.17;100401.23;105091;1302;68603;-87
2023/05/30 00:42:09;;;;;;;6.80;5.20;;;;;;;22.59;47.20;100402.20;105219;1299;74961;-87
2023/05/30 00:44:44;;;;;;;9.30;5.70;;;;;;;22.58;47.14;100404.40;105125;1296;67995;-92
2023/05/30 00:47:12;;;;;;;6.50;5.20;;;;;;;22.58;47.15;100407.95;105221;1297;72585;-87
2023/05/30 00:49:38;;;;;;;7.30;6.00;;;;;;;22.58;47.08;100406.93;105189;1298;68664;-87
2023/05/30 00:52:04;;;;;;;9.90;5.90;;;;;;;22.58;47.08;100399.23;105246;1297;68117;-87
2023/05/30 00:54:30;;;;;;;9.70;5.40;;;;;;;22.57;47.13;100402.84;105264;1297;67735;-87
2023/05/30 00:56:56;;;;;;;6.80;5.40;;;;;;;22.57;47.11;100402.88;105158;1298;68130;-88
2023/05/30 00:59:22;;;;;;;10.20;5.40;;;;;;;22.57;47.14;100406.27;105034;1297;68384;-87
2023/05/30 01:01:48;;;;;;;11.20;5.60;;;;;;;22.57;47.11;100408.16;105102;1297;68027;-87
2023/05/30 01:04:14;;;;;;;8.00;5.70;;;;;;;22.56;47.11;100406.98;105308;1297;67775;-87
2023/05/30 01:06:39;;;;;;;7.20;5.40;;;;;;;22.56;47.09;100408.27;105157;1297;74312;-87
2023/05/30 01:09:05;;;;;;;7.50;5.70;;;;;;;22.56;47.15;100413.75;105144;1297;67219;-87
2023/05/30 01:11:58;;;;;;;12.30;5.40;;;;;;;22.56;47.11;100414.42;105099;1297;67903;-92
2023/05/30 01:15:00;;;;;;;7.00;5.80;;;;;;;22.55;47.18;100414.84;105137;1297;68384;-92
2023/05/30 01:17:42;;;;;;;8.00;5.50;;;;;;;22.54;47.05;100414.50;105219;1297;74677;-92
2023/05/30 01:20:12;;;;;;;7.10;5.80;;;;;;;22.54;47.09;100408.09;105255;1297;75386;-87
2023/05/30 01:22:49;;;;;;;7.60;5.50;;;;;;;22.54;47.05;100406.86;105260;1297;72522;-87
2023/05/30 01:25:57;;;;;;;9.70;5.40;;;;;;;22.54;47.06;100404.85;105273;1297;67419;-87
2023/05/30 01:28:23;;;;;;;7.90;5.10;;;;;;;22.52;47.14;100405.58;105335;1298;68607;-87
2023/05/30 01:30:49;;;;;;;6.10;5.10;;;;;;;22.52;47.06;100403.84;105166;1297;68767;-87
2023/05/30 01:33:16;;;;;;;7.90;5.60;;;;;;;22.52;47.07;100405.12;105171;1297;67901;-87
2023/05/30 01:35:45;;;;;;;9.00;5.40;;;;;;;22.52;47.01;100403.64;105102;1297;67837;-88
2023/05/30 01:38:11;;;;;;;9.00;5.20;;;;;;;22.52;47.03;100405.79;105025;1297;67906;-87
2023/05/30 01:40:37;;;;;;;7.60;5.40;;;;;;;22.51;47.02;100407.02;105157;1297;68052;-87
2023/05/30 01:43:15;;;;;;;8.10;6.10;;;;;;;22.52;46.99;100404.81;105196;1303;67170;-87
2023/05/30 01:45:54;;;;;;;8.60;5.70;;;;;;;22.51;47.00;100407.27;105239;1297;83077;-87
2023/05/30 01:48:46;;;;;;;7.40;5.20;;;;;;;22.51;46.97;100405.70;105099;1302;72653;-87
2023/05/30 01:51:14;;;;;;;10.60;6.20;;;;;;;22.51;46.99;100410.31;105168;1297;68984;-87
2023/05/30 01:53:43;;;;;;;9.00;5.70;;;;;;;22.50;47.03;100415.18;105248;1297;67734;-88
2023/05/30 01:56:08;;;;;;;8.10;5.80;;;;;;;22.50;47.01;100417.55;105203;1297;67095;-87
2023/05/30 01:58:34;;;;;;;7.90;5.70;;;;;;;22.50;46.96;100415.60;105255;1297;67871;-87
2023/05/30 02:00:59;;;;;;;8.80;5.90;;;;;;;22.50;46.98;100417.70;105213;1297;67996;-87
2023/05/30 02:03:25;;;;;;;6.20;5.00;;;;;;;22.50;46.90;100414.88;105236;1297;67970;-87
2023/05/30 02:05:51;;;;;;;8.60;5.70;;;;;;;22.50;46.93;100415.81;105161;1297;67854;-88
2023/05/30 02:08:26;;;;;;;6.90;5.40;;;;;;;22.49;46.88;100413.95;105224;1297;74827;-92
2023/05/30 02:10:52;;;;;;;10.10;5.40;;;;;;;22.49;46.99;100415.91;105134;1297;67966;-87
2023/05/30 02:13:17;;;;;;;8.80;6.00;;;;;;;22.48;46.85;100417.10;105209;1297;68416;-87
2023/05/30 02:15:43;;;;;;;6.80;5.30;;;;;;;22.49;46.88;100411.61;105105;1297;68469;-87
2023/05/30 02:18:10;;;;;;;7.60;5.70;;;;;;;22.49;46.89;100417.09;105173;1298;67197;-87
2023/05/30 02:20:36;;;;;;;11.40;5.60;;;;;;;22.48;46.82;100413.25;105186;1297;67381;-88
2023/05/30 02:23:02;;;;;;;9.10;5.40;;;;;;;22.48;46.78;100419.40;105109;1297;68673;-86
2023/05/30 02:25:28;;;;;;;7.40;5.70;;;;;;;22.48;46.82;100421.50;105109;1297;68126;-87
2023/05/30 02:27:53;;;;;;;9.80;5.70;;;;;;;22.48;46.83;100422.11;105188;1297;69034;-87
2023/05/30 02:30:19;;;;;;;8.40;5.90;;;;;;;22.47;46.78;100423.31;105170;1297;82927;-87
2023/05/30 02:32:45;;;;;;;8.10;5.80;;;;;;;22.47;46.72;100423.00;105131;1300;68824;-87
2023/05/30 02:35:20;;;;;;;8.20;5.80;;;;;;;22.47;46.71;100419.77;105195;1297;67905;-91
2023/05/30 02:37:45;;;;;;;7.40;5.60;;;;;;;22.46;46.67;100418.40;105075;1298;67096;-86
2023/05/30 02:40:12;;;;;;;8.00;5.40;;;;;;;22.47;46.72;100419.11;105142;1297;67902;-86
2023/05/30 02:42:37;;;;;;;8.70;5.70;;;;;;;22.46;46.65;100416.23;105210;1297;68234;-86
2023/05/30 02:45:04;;;;;;;8.70;5.20;;;;;;;22.47;46.69;100419.52;105272;1303;68645;-87
2023/05/30 02:47:30;;;;;;;9.80;5.70;;;;;;;22.46;46.64;100420.23;105204;1297;67859;-86
2023/05/30 02:49:55;;;;;;;8.70;5.20;;;;;;;22.46;46.62;100425.11;105274;1297;69159;-86
2023/05/30 02:52:22;;;;;;;14.20;6.10;;;;;;;22.45;46.57;100425.33;105247;1297;67796;-86
2023/05/30 02:54:48;;;;;;;8.50;5.40;;;;;;;22.46;46.59;100428.03;105210;1299;67678;-87
2023/05/30 02:57:15;;;;;;;7.70;5.70;;;;;;;22.46;46.50;100428.14;105164;1300;67683;-87
2023/05/30 02:59:41;;;;;;;7.20;5.70;;;;;;;22.46;46.50;100431.16;105201;1299;67861;-87
2023/05/30 03:02:16;;;;;;;6.50;5.70;;;;;;;22.46;46.37;100430.45;105174;1297;67733;-92
2023/05/30 03:04:45;;;;;;;8.50;5.20;;;;;;;22.46;46.50;100431.77;105271;1297;83041;-87
2023/05/30 03:07:12;;;;;;;7.60;5.20;;;;;;;22.47;46.51;100430.80;105174;1297;67855;-87
2023/05/30 03:09:41;;;;;;;10.70;5.20;;;;;;;22.47;46.59;100426.90;105113;1297;67965;-87
2023/05/30 03:12:07;;;;;;;21.60;13.70;;;;;;;22.46;46.67;100425.02;105132;1300;68416;-87
2023/05/30 03:14:33;;;;;;;14.60;10.70;;;;;;;22.45;46.56;100420.29;105319;1297;68487;-87
2023/05/30 03:17:08;;;;;;;21.00;11.50;;;;;;;22.38;46.38;100425.85;105206;1297;68033;-91
2023/05/30 03:19:34;;;;;;;18.50;8.70;;;;;;;22.29;46.24;100422.42;105375;1297;72460;-87
2023/05/30 03:22:00;;;;;;;14.00;7.60;;;;;;;22.24;46.26;100423.79;105188;1302;67761;-87
2023/05/30 03:24:26;;;;;;;11.60;6.50;;;;;;;22.20;46.19;100422.38;105216;1297;69303;-87
2023/05/30 03:26:52;;;;;;;9.70;7.10;;;;;;;22.16;46.25;100423.83;105289;1299;67490;-88
2023/05/30 03:29:18;;;;;;;10.30;6.20;;;;;;;22.11;46.20;100426.88;105203;1297;68539;-87
2023/05/30 03:31:44;;;;;;;8.70;6.10;;;;;;;22.06;46.10;100425.73;105173;1302;67240;-87
2023/05/30 03:34:09;;;;;;;9.40;6.00;;;;;;;22.02;46.12;100431.64;105329;1302;67982;-87
2023/05/30 03:36:35;;;;;;;12.10;5.60;;;;;;;22.01;46.23;100432.37;105515;1297;74824;-87
2023/05/30 03:39:01;;;;;;;12.00;6.40;;;;;;;22.03;46.10;100433.84;105545;1301;67892;-87
2023/05/30 03:41:26;;;;;;;8.70;5.90;;;;;;;22.06;46.11;100434.85;105497;1297;67192;-87
2023/05/30 03:43:55;;;;;;;10.40;6.30;;;;;;;22.08;46.07;100437.40;105538;1299;68213;-92
2023/05/30 03:46:21;;;;;;;12.30;6.30;;;;;;;22.11;46.02;100447.28;105703;1297;68390;-87
2023/05/30 03:48:47;;;;;;;13.00;7.50;;;;;;;22.13;45.96;100443.95;105528;1297;67034;-87
2023/05/30 03:51:12;;;;;;;10.30;6.30;;;;;;;22.14;45.98;100447.27;105671;1297;67224;-87
2023/05/30 03:53:38;;;;;;;12.40;7.10;;;;;;;22.16;45.97;100450.73;105541;1297;69204;-86
2023/05/30 03:56:04;;;;;;;12.20;7.10;;;;;;;22.17;45.94;100457.39;105646;1297;67892;-86
2023/05/30 03:58:30;;;;;;;11.00;6.50;;;;;;;22.19;45.86;100454.55;105586;1297;74286;-86
2023/05/30 04:00:55;;;;;;;10.40;7.20;;;;;;;22.19;45.83;100458.36;105494;1300;68014;-87
2023/05/30 04:03:21;;;;;;;10.50;6.80;;;;;;;22.20;45.86;100459.44;105676;1298;68400;-86
2023/05/30 04:05:47;;;;;;;11.10;6.80;;;;;;;22.21;45.84;100463.21;105515;1299;67584;-87
2023/05/30 04:08:13;;;;;;;11.40;6.90;;;;;;;22.23;45.76;100469.46;105565;1299;67908;-87
2023/05/30 04:10:39;;;;;;;9.70;7.10;;;;;;;22.24;45.79;100475.09;105633;1297;83189;-87
2023/05/30 04:13:05;;;;;;;8.90;6.30;;;;;;;22.25;45.74;100475.75;105435;1297;68480;-87
2023/05/30 04:15:30;;;;;;;14.60;7.40;;;;;;;22.26;45.78;100474.21;105519;1297;68362;-87
2023/05/30 04:17:57;;;;;;;14.30;7.00;;;;;;;22.27;45.77;100474.67;105528;1297;67827;-87
2023/05/30 04:20:24;;;;;;;11.30;7.80;;;;;;;22.28;45.72;100473.08;105483;1297;68977;-87
2023/05/30 04:22:58;;;;;;;14.20;7.30;;;;;;;22.28;45.74;100474.61;105561;1297;68495;-93
2023/05/30 04:25:24;;;;;;;14.90;7.30;;;;;;;22.29;45.74;100477.94;105488;1297;72390;-88
2023/05/30 04:27:50;;;;;;;11.40;7.90;;;;;;;22.30;45.67;100477.05;105631;1297;67902;-88
2023/05/30 04:30:16;;;;;;;10.80;6.70;;;;;;;22.31;45.69;100474.76;105453;1297;68708;-87
2023/05/30 04:32:41;;;;;;;9.40;7.00;;;;;;;22.31;45.61;100473.10;105724;1300;68429;-87
2023/05/30 04:35:07;;;;;;;13.50;7.70;;;;;;;22.33;45.55;100477.35;105729;1297;68236;-88
2023/05/30 04:37:39;;;;;;;15.60;9.60;;;;;;;22.33;45.61;100474.58;105526;1297;68538;-87
2023/05/30 04:40:20;;;;;;;15.40;8.10;;;;;;;22.34;45.57;100479.35;105392;1298;67488;-87
2023/05/30 04:42:51;;;;;;;24.80;9.00;;;;;;;22.34;45.64;100479.55;105721;1299;67213;-89
2023/05/30 04:45:18;;;;;;;32.50;10.00;;;;;;;22.35;45.52;100480.01;105580;1299;83979;-87
2023/05/30 04:47:47;;;;;;;32.90;8.60;;;;;;;22.33;45.50;100484.38;105491;1300;67623;-88
2023/05/30 04:50:14;;;;;;;30.10;8.90;;;;;;;22.34;45.50;100483.86;105416;1301;67855;-88
2023/05/30 04:52:47;;;;;;;25.40;8.40;;;;;;;22.33;45.43;100487.86;105598;1301;68856;-92
2023/05/30 04:55:13;;;;;;;24.10;8.30;;;;;;;22.32;45.36;100482.98;105570;1297;75351;-87
2023/05/30 04:57:38;;;;;;;24.00;7.60;;;;;;;22.33;45.38;100492.63;105394;1300;68858;-86
2023/05/30 05:00:09;;;;;;;23.60;8.10;;;;;;;22.33;45.44;100490.42;105238;1299;68642;-84
2023/05/30 05:02:37;;;;;;;18.60;7.60;;;;;;;22.34;45.51;100487.65;105333;1299;69437;-86
2023/05/30 05:05:02;;;;;;;21.70;7.40;;;;;;;22.33;45.53;100490.84;105449;1293;67063;-88
2023/05/30 05:07:29;;;;;;;14.40;7.40;;;;;;;22.33;45.52;100492.16;105797;1298;67688;-90
2023/05/30 05:10:18;;;;;;;20.70;6.90;;;;;;;22.32;45.46;100489.55;105612;1296;67168;-90
2023/05/30 05:12:44;;;;;;;14.30;6.70;;;;;;;22.31;45.43;100495.52;105405;1299;72530;-91
2023/05/30 05:15:13;;;;;;;21.90;7.20;;;;;;;22.30;45.40;100492.69;105719;1296;67411;-91
2023/05/30 05:17:43;;;;;;;18.70;7.40;;;;;;;22.29;45.31;100492.18;105548;1299;67566;-90
2023/05/30 05:23:02;;;;;;;19.00;6.70;;;;;;;22.27;45.40;100491.23;85976;1297;80472;-90
2023/05/30 05:28:02;;;;;;;17.40;6.60;;;;;;;22.28;45.41;100495.94;105468;1299;68339;-90
2023/05/30 05:33:00;;;;;;;18.70;9.50;;;;;;;22.29;45.47;100498.50;105612;1293;73938;-89
2023/05/30 05:35:26;;;;;;;18.40;9.70;;;;;;;22.30;45.50;100503.05;101979;1296;67247;-88
2023/05/30 05:37:54;;;;;;;13.00;8.60;;;;;;;22.31;45.43;100500.99;105546;1297;69348;-88
2023/05/30 05:40:20;;;;;;;16.50;8.70;;;;;;;22.31;45.48;100500.89;105465;1300;68017;-87
2023/05/30 05:42:45;;;;;;;15.30;8.10;;;;;;;22.32;45.41;100504.63;105242;1302;68410;-87
2023/05/30 05:48:21;;;;;;;12.70;7.60;;;;;;;22.30;45.35;100502.89;105314;1302;83050;-87
2023/05/30 05:51:05;;;;;;;14.10;8.40;;;;;;;22.29;45.33;100509.66;105598;1293;67300;-88
2023/05/30 06:07:08;;;;;;;17.10;9.10;;;;;;;22.14;44.88;100509.16;104723;1298;73499;-90
2023/05/30 06:09:35;;;;;;;16.30;9.30;;;;;;;22.13;44.90;100510.81;105550;1297;67845;-88
2023/05/30 06:12:10;;;;;;;16.70;8.30;;;;;;;22.12;44.93;100513.85;105569;1297;68163;-90
2023/05/30 06:14:36;;;;;;;14.90;7.60;;;;;;;22.12;44.83;100511.95;105462;1300;74459;-86
2023/05/30 06:57:45;;;;;;;24.10;8.90;;;;;;;22.32;44.98;100508.93;104802;1306;67410;-90
2023/05/30 07:05:56;;;;;;;18.10;7.90;;;;;;;22.42;44.59;100507.10;105389;1296;71819;-89
2023/05/30 07:08:31;;;;;;;22.40;7.40;;;;;;;22.43;44.26;100505.77;104858;1300;651926;-90
2023/05/30 07:13:44;;;;;;;20.80;7.10;;;;;;;22.48;43.64;100504.52;95414;1301;73609;-92
2023/05/30 07:18:40;;;;;;;17.10;5.50;;;;;;;22.51;43.17;100507.63;105261;1297;68027;-90
2023/05/30 07:21:07;;;;;;;12.40;4.90;;;;;;;22.53;42.88;100507.41;104938;1299;68447;-91
2023/05/30 07:23:37;;;;;;;13.30;5.60;;;;;;;22.55;42.55;100503.96;105308;1298;67621;-90
2023/05/30 07:26:03;;;;;;;12.20;5.40;;;;;;;22.57;42.28;100505.99;105510;1299;74347;-86
2023/05/30 07:31:51;;;;;;;20.40;5.20;;;;;;;22.57;41.92;100508.10;105455;1290;68333;-89
2023/05/30 07:35:19;;;;;;;10.40;5.40;;;;;;;22.60;41.46;100511.53;100319;1296;537928;-93
2023/05/30 07:37:45;;;;;;;12.40;5.00;;;;;;;22.61;41.43;100516.39;105257;1300;67478;-88
2023/05/30 07:40:33;;;;;;;10.90;5.20;;;;;;;22.64;41.25;100519.52;104887;1292;554825;-86
2023/05/30 07:46:50;;;;;;;17.60;7.00;;;;;;;22.66;41.08;100519.12;83503;1312;66314;31
2023/05/30 07:49:31;;;;;;;15.90;5.90;;;;;;;22.65;41.21;100521.42;105329;1299;67848;-89
2023/05/30 07:54:39;;;;;;;17.00;6.10;;;;;;;22.70;41.11;100522.80;105498;1299;67355;-89
2023/05/30 07:57:12;;;;;;;16.00;8.30;;;;;;;22.72;41.12;100524.27;104977;1300;74213;-86
2023/05/30 07:59:41;;;;;;;16.60;7.70;;;;;;;22.74;41.07;100520.72;105077;1300;67338;-91
2023/05/30 08:02:07;;;;;;;18.80;7.30;;;;;;;22.75;40.96;100521.89;105115;1300;68507;-89
2023/05/30 08:04:33;;;;;;;14.40;6.30;;;;;;;22.77;41.07;100518.14;104942;1300;67992;-90
2023/05/30 08:07:04;;;;;;;17.80;7.70;;;;;;;22.78;40.99;100522.27;105386;1300;67215;-90
2023/05/30 08:09:30;;;;;;;17.90;9.60;;;;;;;22.81;40.86;100517.75;105394;1300;82860;-87
2023/05/30 08:11:58;;;;;;;16.90;9.70;;;;;;;22.81;40.85;100522.32;105312;1299;67290;-88
2023/05/30 08:14:23;;;;;;;12.20;9.00;;;;;;;22.83;40.79;100518.25;105500;1300;67983;-88
2023/05/30 08:16:57;;;;;;;15.40;8.50;;;;;;;22.84;40.83;100517.52;105624;1300;67286;-90
2023/05/30 08:19:25;;;;;;;20.50;9.90;;;;;;;22.84;40.87;100517.53;105548;1300;67216;-89
2023/05/30 08:28:26;;;;;;;8.80;6.30;;;;;;;22.86;41.32;100515.30;85221;1299;538373;-87
2023/05/30 08:30:58;;;;;;;16.70;7.90;;;;;;;22.88;41.40;100516.20;105531;1302;67562;-92
2023/05/30 08:33:25;;;;;;;16.30;9.10;;;;;;;22.89;41.36;100517.63;105660;1299;74491;-85
2023/05/30 08:35:51;;;;;;;15.40;7.40;;;;;;;22.90;41.49;100516.19;105476;1300;73436;-87
2023/05/30 08:38:16;;;;;;;12.80;6.10;;;;;;;22.92;41.34;100514.38;105401;1300;67995;-85
2023/05/30 08:40:43;;;;;;;9.90;5.30;;;;;;;22.94;41.17;100515.35;105258;1302;67304;-86
2023/05/30 08:43:09;;;;;;;12.40;6.10;;;;;;;22.94;41.26;100511.39;105329;1300;67961;-88
2023/05/30 08:48:20;;;;;;;12.30;5.20;;;;;;;22.92;41.10;100512.36;105872;1297;72938;-88
2023/05/30 08:50:46;;;;;;;14.50;5.60;;;;;;;22.94;41.06;100515.04;105861;1297;67161;-87
2023/05/30 08:59:10;;;;;;;15.70;5.80;;;;;;;22.98;41.24;100504.95;93818;1299;68165;-86
2023/05/30 09:01:37;;;;;;;16.40;6.80;;;;;;;23.00;41.38;100503.38;105595;1300;67263;-89
2023/05/30 09:36:18;;;;;;;;;;;;;;;;;;;;;
2023/05/30 09:49:39;;;;;;;;;;;;;;;;;;;;;
2023/05/30 10:06:22;;;;;;;10.90;4.70;;;;;;;23.27;39.80;100488.83;105771;1299;72741;-90
2023/05/30 10:08:51;;;;;;;8.00;4.60;;;;;;;23.28;39.49;100483.88;105600;1298;68249;-90
2023/05/30 10:14:56;;;;;;;7.50;5.00;;;;;;;23.30;39.22;100478.99;103133;1298;67589;-92
2023/05/30 10:29:40;;;;;;;10.00;4.60;;;;;;;23.37;38.72;100460.63;105754;1298;68155;-91
2023/05/30 10:35:46;;;;;;;8.40;4.50;;;;;;;23.42;38.27;100461.05;105422;1293;72450;-90
2023/05/30 10:45:43;;;;;;;8.10;4.80;;;;;;;23.50;37.88;100466.00;83445;1296;66259;-91
2023/05/30 10:58:52;;;;;;;12.00;5.20;;;;;;;23.55;37.58;100468.05;103475;1296;67143;-91
2023/05/30 11:22:17;;;;;;;9.30;4.60;;;;;;;23.54;36.94;100431.96;105695;1296;66975;-90
2023/05/30 11:24:47;;;;;;;9.80;4.40;;;;;;;23.55;36.88;100433.70;105559;1291;74467;-89
2023/05/30 11:29:57;;;;;;;6.10;4.10;;;;;;;23.54;36.54;100431.91;105620;1297;67802;-89
2023/05/30 11:32:31;;;;;;;6.10;4.30;;;;;;;23.53;36.36;100430.13;105719;1293;67081;-90
2023/05/30 11:37:57;;;;;;;6.30;4.00;;;;;;;23.53;36.12;100423.86;105650;1296;73295;-92
2023/05/30 11:43:29;;;;;;;6.90;4.10;;;;;;;23.54;35.84;100418.24;105944;1290;67184;-91
2023/05/30 11:48:48;;;;;;;7.30;4.90;;;;;;;23.54;35.69;100414.55;105838;1299;67242;-89
2023/05/30 11:53:48;;;;;;;6.80;3.90;;;;;;;23.52;35.73;100407.02;105864;1299;67181;-90
2023/05/30 11:56:18;;;;;;;11.10;4.50;;;;;;;23.51;35.61;100402.46;105678;1298;67163;-90
2023/05/30 11:58:45;;;;;;;7.20;4.50;;;;;;;23.50;35.49;100405.61;105713;1295;67179;-88
2023/05/30 12:01:11;;;;;;;7.40;4.20;;;;;;;23.50;35.34;100401.95;105471;1300;67931;-90
2023/05/30 12:03:39;;;;;;;8.10;4.80;;;;;;;23.50;35.20;100392.52;105747;1297;67090;-89
2023/05/30 12:08:38;;;;;;;6.90;4.60;;;;;;;23.50;34.87;100383.53;105883;1297;67863;-89
2023/05/30 12:11:06;;;;;;;8.30;4.40;;;;;;;23.51;34.78;100385.36;105765;1299;68468;-89
2023/05/30 12:13:33;;;;;;;7.30;4.60;;;;;;;23.53;34.68;100384.15;105635;1298;73368;-89
2023/05/30 12:16:00;;;;;;;8.30;4.00;;;;;;;23.53;34.45;100383.19;105566;1299;67410;-88
2023/05/30 12:18:35;;;;;;;6.80;4.20;;;;;;;23.53;34.37;100388.36;105490;1293;67761;-87
2023/05/30 12:23:35;;;;;;;5.90;4.00;;;;;;;23.56;34.15;100382.64;105763;1296;67231;-89
2023/05/30 12:26:01;;;;;;;9.70;4.00;;;;;;;23.57;33.89;100379.29;105654;1296;67104;-89
2023/05/30 12:28:33;;;;;;;7.10;3.80;;;;;;;23.59;33.80;100375.25;105665;1299;67325;-89
2023/05/30 12:31:00;;;;;;;8.60;4.40;;;;;;;23.59;33.80;100372.08;105771;1297;67142;-89
2023/05/30 12:33:29;;;;;;;6.10;4.50;;;;;;;23.60;33.90;100374.11;105771;1291;68257;-88
2023/05/30 12:39:12;;;;;;;7.30;4.50;;;;;;;23.63;34.13;100369.60;105551;1302;67303;-89
2023/05/30 12:41:41;;;;;;;7.00;4.30;;;;;;;23.65;34.41;100368.15;105527;1298;75428;-89
2023/05/30 12:44:22;;;;;;;5.40;4.00;;;;;;;23.66;34.62;100364.02;105379;1299;68033;-88
2023/05/30 12:49:59;;;;;;;;;;;;;;;;;;;;;
2023/05/30 12:52:38;;;;;;;9.20;4.70;;;;;;;23.65;34.48;100352.93;105721;1296;67758;-90
2023/05/30 12:55:19;;;;;;;6.30;4.30;;;;;;;23.64;34.57;100351.56;105504;1296;74187;-91
2023/05/30 13:00:58;;;;;;;10.60;5.00;;;;;;;23.62;34.70;100352.66;105670;1295;67765;-90
2023/05/30 13:06:41;;;;;;;11.10;4.90;;;;;;;23.60;34.53;100350.59;105817;1290;67840;-90
2023/05/30 13:12:20;;;;;;;10.30;4.70;;;;;;;23.59;34.49;100346.09;105782;1290;67100;-88
2023/05/30 13:21:32;;;;;;;11.90;4.90;;;;;;;23.56;34.46;100342.21;105767;1293;67748;31
2023/05/30 13:27:00;;;;;;;11.20;5.10;;;;;;;23.58;35.43;100335.02;105741;1299;67624;-93
2023/05/30 13:32:16;;;;;;;9.60;4.90;;;;;;;23.60;35.45;100331.12;105799;1298;67227;-87
2023/05/30 13:34:41;;;;;;;14.30;5.60;;;;;;;23.63;35.43;100330.41;105793;1298;67638;-88
2023/05/30 13:37:07;;;;;;;9.20;4.90;;;;;;;23.64;35.34;100330.51;105735;1299;67146;-87
2023/05/30 13:39:34;;;;;;;12.60;4.70;;;;;;;23.63;35.26;100333.23;105669;1302;67447;-87
2023/05/30 13:41:59;;;;;;;17.70;5.90;;;;;;;23.64;35.22;100331.28;105716;1299;68346;-88
2023/05/30 13:44:26;;;;;;;8.30;4.90;;;;;;;23.64;35.22;100330.61;105670;1300;67741;-88
2023/05/30 13:46:53;;;;;;;15.50;4.70;;;;;;;23.64;35.15;100330.45;105698;1299;75474;-88
2023/05/30 13:49:21;;;;;;;20.10;5.50;;;;;;;23.64;35.21;100328.92;105638;1299;67893;-88
2023/05/30 13:51:47;;;;;;;20.90;5.10;;;;;;;23.64;35.26;100326.92;105749;1298;67094;-88
2023/05/30 13:54:13;;;;;;;13.90;4.70;;;;;;;23.64;35.06;100323.83;105743;1299;69033;-88
2023/05/30 13:59:15;;;;;;;10.70;4.90;;;;;;;23.63;35.14;100322.56;105725;1299;72767;-87
2023/05/30 14:01:42;;;;;;;13.80;5.50;;;;;;;23.63;35.04;100325.69;105421;1299;67884;-88
2023/05/30 14:04:07;;;;;;;13.30;5.20;;;;;;;23.64;35.10;100324.80;105585;1299;67602;-88
2023/05/30 14:06:34;;;;;;;10.20;5.00;;;;;;;23.65;35.19;100328.70;105385;1299;67713;-88
2023/05/30 14:08:59;;;;;;;11.20;4.50;;;;;;;23.66;35.33;100330.80;105414;1300;67703;-88
2023/05/30 14:11:25;;;;;;;13.60;4.90;;;;;;;23.67;35.23;100329.85;105377;1300;67818;-87
2023/05/30 14:13:51;;;;;;;9.60;4.90;;;;;;;23.68;35.30;100330.55;105345;1302;67784;-87
2023/05/30 14:16:20;;;;;;;8.10;5.10;;;;;;;23.69;35.34;100328.91;105389;1300;67921;-87
2023/05/30 14:18:46;;;;;;;12.70;5.40;;;;;;;23.69;35.44;100329.46;105491;1300;67777;-88
2023/05/30 14:21:13;;;;;;;14.60;4.80;;;;;;;23.69;35.38;100329.47;105310;1299;68661;-88
2023/05/30 14:23:45;;;;;;;7.80;5.20;;;;;;;23.68;35.46;100332.09;105358;1300;68084;-92
2023/05/30 14:26:11;;;;;;;8.90;4.90;;;;;;;23.67;35.42;100329.59;105444;1302;67311;-87
2023/05/30 14:28:41;;;;;;;10.10;5.40;;;;;;;23.68;35.39;100333.59;105364;1300;67904;-88
2023/05/30 14:31:09;;;;;;;12.10;4.70;;;;;;;23.67;35.63;100333.19;105387;1302;68428;-87
2023/05/30 14:33:37;;;;;;;17.30;5.30;;;;;;;23.67;35.34;100336.32;105447;1300;74402;-87
2023/05/30 14:36:04;;;;;;;9.70;5.10;;;;;;;23.67;35.35;100340.17;105495;1300;67936;-87
2023/05/30 14:41:21;;;;;;;8.60;5.30;;;;;;;23.66;35.53;100339.16;104904;1299;67735;-88
2023/05/30 14:43:47;;;;;;;17.90;5.40;;;;;;;23.67;35.58;100336.89;105741;1299;67736;-88
2023/05/30 14:46:13;;;;;;;21.20;5.50;;;;;;;23.67;35.64;100337.65;105736;1299;68427;-89
2023/05/30 14:48:42;;;;;;;23.30;5.30;;;;;;;23.67;35.71;100340.33;105625;1300;67861;-88
2023/05/30 14:51:08;;;;;;;16.40;5.60;;;;;;;23.67;35.65;100341.42;105565;1299;67973;-88
2023/05/30 14:53:44;;;;;;;9.50;5.30;;;;;;;23.67;35.96;100343.46;105520;1300;67220;-92
2023/05/30 14:56:10;;;;;;;12.00;5.10;;;;;;;23.66;36.09;100343.38;105678;1300;67189;-89
2023/05/30 14:58:36;;;;;;;8.60;4.90;;;;;;;23.65;36.22;100340.61;105887;1299;67250;-87
2023/05/30 15:01:01;;;;;;;10.90;5.10;;;;;;;23.64;36.20;100338.31;105728;1299;68406;-88
2023/05/30 15:03:27;;;;;;;6.90;4.50;;;;;;;23.65;36.09;100336.55;105508;1300;68078;-88
2023/05/30 15:05:56;;;;;;;9.30;5.50;;;;;;;23.66;36.14;100335.31;105533;1299;67578;-87
2023/05/30 15:11:05;;;;;;;8.80;6.20;;;;;;;23.65;36.18;100342.61;105510;1298;75347;-87
2023/05/30 15:13:30;;;;;;;14.90;12.00;;;;;;;23.65;36.32;100345.33;105604;1300;68221;-87
2023/05/30 15:15:56;;;;;;;13.10;8.60;;;;;;;23.65;36.34;100341.33;105680;1299;67776;-86
2023/05/30 15:18:22;;;;;;;14.50;9.00;;;;;;;23.66;36.31;100343.02;105512;1299;67864;-87
2023/05/30 15:20:48;;;;;;;11.80;8.90;;;;;;;23.67;36.30;100344.23;105296;1300;69290;-88
2023/05/30 15:23:14;;;;;;;10.90;8.20;;;;;;;23.66;36.28;100345.12;105304;1299;67855;-87
2023/05/30 15:25:39;;;;;;;14.90;8.10;;;;;;;23.66;36.46;100346.77;105265;1299;67099;-88
2023/05/30 15:28:06;;;;;;;11.50;7.80;;;;;;;23.66;36.32;100346.77;105351;1298;68289;-88
2023/05/30 15:30:31;;;;;;;10.80;8.20;;;;;;;23.64;36.54;100345.45;105253;1299;67200;-88
2023/05/30 15:33:00;;;;;;;10.90;8.00;;;;;;;23.63;36.53;100342.64;105180;1299;67329;-88
2023/05/30 15:35:29;;;;;;;11.30;7.20;;;;;;;23.62;36.54;100341.36;105336;1299;67689;-93
2023/05/30 15:37:55;;;;;;;9.00;7.20;;;;;;;23.60;36.70;100341.80;105334;1299;68496;-88
2023/05/30 15:40:20;;;;;;;10.40;7.00;;;;;;;23.60;36.84;100340.61;105279;1298;67953;-88
2023/05/30 15:42:46;;;;;;;11.80;7.10;;;;;;;23.59;36.93;100339.36;105458;1299;67940;-88
2023/05/30 15:45:13;;;;;;;9.80;6.50;;;;;;;23.58;36.85;100344.66;105396;1299;68358;-88
2023/05/30 15:47:39;;;;;;;12.90;7.00;;;;;;;23.58;36.78;100347.55;105507;1298;67996;-89
2023/05/30 15:50:05;;;;;;;10.80;6.80;;;;;;;23.56;36.81;100344.23;105598;1299;67268;-88
2023/05/30 15:52:31;;;;;;;8.60;6.70;;;;;;;23.56;36.99;100346.99;105293;1299;67256;-88
2023/05/30 15:54:57;;;;;;;8.00;7.00;;;;;;;23.55;37.06;100349.27;105422;1300;67233;-88
2023/05/30 15:57:23;;;;;;;10.10;7.00;;;;;;;23.54;37.06;100344.41;105196;1300;67985;-88